sensor_id;sensor_type;location;lat;lon;timestamp;P1;durP1;ratioP1;P2;durP2;ratioP2
75129;SDS011;63703;44.716;37.846;2023-04-15T00:01:27;8.70;;;2.50;;
75129;SDS011;63703;44.716;37.846;2023-04-15T00:03:53;8.45;;;2.50;;
75129;SDS011;63703;44.716;37.846;2023-04-15T00:06:21;6.38;;;2.28;;
75129;SDS011;63703;44.716;37.846;2023-04-15T00:08:47;7.63;;;2.17;;
75129;SDS011;63703;44.716;37.846;2023-04-15T00:11:13;5.63;;;2.25;;
75129;SDS011;63703;44.716;37.846;2023-04-15T00:13:39;8.50;;;2.13;;
75129;SDS011;63703;44.716;37.846;2023-04-15T00:16:06;7.85;;;1.90;;
75129;SDS011;63703;44.716;37.846;2023-04-15T00:18:36;8.35;;;2.13;;
75129;SDS011;63703;44.716;37.846;2023-04-15T00:21:02;5.68;;;1.63;;
75129;SDS011;63703;44.716;37.846;2023-04-15T00:23:29;5.30;;;1.52;;
75129;SDS011;63703;44.716;37.846;2023-04-15T00:25:55;5.75;;;1.23;;
75129;SDS011;63703;44.716;37.846;2023-04-15T00:28:21;7.00;;;2.70;;
75129;SDS011;63703;44.716;37.846;2023-04-15T00:30:47;8.95;;;2.30;;
75129;SDS011;63703;44.716;37.846;2023-04-15T00:33:13;5.82;;;1.65;;
75129;SDS011;63703;44.716;37.846;2023-04-15T00:35:40;5.25;;;1.50;;
75129;SDS011;63703;44.716;37.846;2023-04-15T00:38:07;5.35;;;2.08;;
75129;SDS011;63703;44.716;37.846;2023-04-15T00:40:33;5.78;;;1.48;;
75129;SDS011;63703;44.716;37.846;2023-04-15T00:42:59;9.88;;;2.13;;
75129;SDS011;63703;44.716;37.846;2023-04-15T00:45:26;5.80;;;1.90;;
75129;SDS011;63703;44.716;37.846;2023-04-15T00:47:53;6.15;;;1.55;;
75129;SDS011;63703;44.716;37.846;2023-04-15T00:50:20;6.47;;;2.08;;
75129;SDS011;63703;44.716;37.846;2023-04-15T00:52:48;10.10;;;2.70;;
75129;SDS011;63703;44.716;37.846;2023-04-15T00:55:14;7.32;;;2.15;;
75129;SDS011;63703;44.716;37.846;2023-04-15T00:57:40;5.10;;;2.05;;
75129;SDS011;63703;44.716;37.846;2023-04-15T01:00:07;6.57;;;1.90;;
75129;SDS011;63703;44.716;37.846;2023-04-15T01:02:35;7.07;;;1.52;;
75129;SDS011;63703;44.716;37.846;2023-04-15T01:05:02;4.35;;;1.20;;
75129;SDS011;63703;44.716;37.846;2023-04-15T01:07:29;4.80;;;1.27;;
75129;SDS011;63703;44.716;37.846;2023-04-15T01:09:56;6.10;;;1.85;;
75129;SDS011;63703;44.716;37.846;2023-04-15T01:12:22;6.10;;;2.33;;
75129;SDS011;63703;44.716;37.846;2023-04-15T01:14:50;5.15;;;2.05;;
75129;SDS011;63703;44.716;37.846;2023-04-15T01:17:17;6.43;;;1.50;;
75129;SDS011;63703;44.716;37.846;2023-04-15T01:19:43;9.40;;;2.35;;
75129;SDS011;63703;44.716;37.846;2023-04-15T01:22:10;5.80;;;1.92;;
75129;SDS011;63703;44.716;37.846;2023-04-15T01:24:37;7.13;;;1.52;;
75129;SDS011;63703;44.716;37.846;2023-04-15T01:27:03;7.95;;;2.53;;
75129;SDS011;63703;44.716;37.846;2023-04-15T01:29:30;5.70;;;2.25;;
75129;SDS011;63703;44.716;37.846;2023-04-15T01:31:57;8.02;;;3.10;;
75129;SDS011;63703;44.716;37.846;2023-04-15T01:34:25;6.65;;;2.13;;
75129;SDS011;63703;44.716;37.846;2023-04-15T01:36:52;7.00;;;1.52;;
75129;SDS011;63703;44.716;37.846;2023-04-15T01:39:20;5.15;;;2.55;;
75129;SDS011;63703;44.716;37.846;2023-04-15T01:41:46;6.70;;;1.55;;
75129;SDS011;63703;44.716;37.846;2023-04-15T01:44:12;4.63;;;1.67;;
75129;SDS011;63703;44.716;37.846;2023-04-15T01:46:38;9.63;;;1.88;;
75129;SDS011;63703;44.716;37.846;2023-04-15T01:49:04;8.63;;;2.30;;
75129;SDS011;63703;44.716;37.846;2023-04-15T01:51:31;5.00;;;1.67;;
75129;SDS011;63703;44.716;37.846;2023-04-15T01:53:57;4.80;;;1.65;;
75129;SDS011;63703;44.716;37.846;2023-04-15T01:56:23;6.85;;;2.17;;
75129;SDS011;63703;44.716;37.846;2023-04-15T01:58:49;7.00;;;1.90;;
75129;SDS011;63703;44.716;37.846;2023-04-15T02:01:16;6.10;;;1.92;;
75129;SDS011;63703;44.716;37.846;2023-04-15T02:03:44;7.40;;;2.25;;
75129;SDS011;63703;44.716;37.846;2023-04-15T02:06:10;6.30;;;1.70;;
75129;SDS011;63703;44.716;37.846;2023-04-15T02:08:37;6.57;;;2.17;;
75129;SDS011;63703;44.716;37.846;2023-04-15T02:11:06;5.43;;;4.30;;
75129;SDS011;63703;44.716;37.846;2023-04-15T02:13:32;5.93;;;3.00;;
75129;SDS011;63703;44.716;37.846;2023-04-15T02:15:58;6.55;;;2.53;;
75129;SDS011;63703;44.716;37.846;2023-04-15T02:18:24;9.32;;;3.83;;
75129;SDS011;63703;44.716;37.846;2023-04-15T02:20:51;6.28;;;2.13;;
75129;SDS011;63703;44.716;37.846;2023-04-15T02:23:17;8.07;;;1.90;;
75129;SDS011;63703;44.716;37.846;2023-04-15T02:25:43;5.75;;;2.08;;
75129;SDS011;63703;44.716;37.846;2023-04-15T02:28:09;10.48;;;2.03;;
75129;SDS011;63703;44.716;37.846;2023-04-15T02:30:35;5.13;;;2.00;;
75129;SDS011;63703;44.716;37.846;2023-04-15T02:33:01;6.07;;;1.98;;
75129;SDS011;63703;44.716;37.846;2023-04-15T02:35:28;5.40;;;2.83;;
75129;SDS011;63703;44.716;37.846;2023-04-15T02:37:54;7.57;;;2.97;;
75129;SDS011;63703;44.716;37.846;2023-04-15T02:40:20;6.70;;;2.85;;
75129;SDS011;63703;44.716;37.846;2023-04-15T02:42:47;7.38;;;3.17;;
75129;SDS011;63703;44.716;37.846;2023-04-15T02:45:15;5.43;;;2.65;;
75129;SDS011;63703;44.716;37.846;2023-04-15T02:47:43;6.63;;;1.85;;
75129;SDS011;63703;44.716;37.846;2023-04-15T02:50:11;5.88;;;2.28;;
75129;SDS011;63703;44.716;37.846;2023-04-15T02:52:39;5.63;;;2.15;;
75129;SDS011;63703;44.716;37.846;2023-04-15T02:55:06;7.30;;;3.17;;
75129;SDS011;63703;44.716;37.846;2023-04-15T02:57:35;4.68;;;2.42;;
75129;SDS011;63703;44.716;37.846;2023-04-15T03:00:05;6.05;;;2.20;;
75129;SDS011;63703;44.716;37.846;2023-04-15T03:02:36;6.10;;;1.67;;
75129;SDS011;63703;44.716;37.846;2023-04-15T03:05:04;5.88;;;2.10;;
75129;SDS011;63703;44.716;37.846;2023-04-15T03:07:31;3.80;;;1.40;;
75129;SDS011;63703;44.716;37.846;2023-04-15T03:09:58;5.28;;;2.80;;
75129;SDS011;63703;44.716;37.846;2023-04-15T03:12:24;5.20;;;1.83;;
75129;SDS011;63703;44.716;37.846;2023-04-15T03:14:54;5.40;;;2.65;;
75129;SDS011;63703;44.716;37.846;2023-04-15T03:17:26;4.95;;;2.75;;
75129;SDS011;63703;44.716;37.846;2023-04-15T03:19:52;4.10;;;1.48;;
75129;SDS011;63703;44.716;37.846;2023-04-15T03:22:18;5.28;;;2.40;;
75129;SDS011;63703;44.716;37.846;2023-04-15T03:24:45;6.25;;;1.85;;
75129;SDS011;63703;44.716;37.846;2023-04-15T03:27:11;5.13;;;2.13;;
75129;SDS011;63703;44.716;37.846;2023-04-15T03:29:38;4.93;;;1.52;;
75129;SDS011;63703;44.716;37.846;2023-04-15T03:32:04;4.05;;;1.67;;
75129;SDS011;63703;44.716;37.846;2023-04-15T03:34:33;4.07;;;1.70;;
75129;SDS011;63703;44.716;37.846;2023-04-15T03:36:58;3.85;;;1.67;;
75129;SDS011;63703;44.716;37.846;2023-04-15T03:39:24;4.60;;;1.10;;
75129;SDS011;63703;44.716;37.846;2023-04-15T03:41:50;4.28;;;2.05;;
75129;SDS011;63703;44.716;37.846;2023-04-15T03:44:16;5.93;;;2.20;;
75129;SDS011;63703;44.716;37.846;2023-04-15T03:46:42;5.22;;;1.35;;
75129;SDS011;63703;44.716;37.846;2023-04-15T03:49:08;3.83;;;2.25;;
75129;SDS011;63703;44.716;37.846;2023-04-15T03:51:34;3.13;;;1.60;;
75129;SDS011;63703;44.716;37.846;2023-04-15T03:54:00;3.20;;;1.25;;
75129;SDS011;63703;44.716;37.846;2023-04-15T03:56:26;5.32;;;1.58;;
75129;SDS011;63703;44.716;37.846;2023-04-15T03:58:52;3.55;;;1.38;;
75129;SDS011;63703;44.716;37.846;2023-04-15T04:01:18;5.60;;;2.10;;
75129;SDS011;63703;44.716;37.846;2023-04-15T04:03:44;3.88;;;1.35;;
75129;SDS011;63703;44.716;37.846;2023-04-15T04:06:10;3.60;;;1.33;;
75129;SDS011;63703;44.716;37.846;2023-04-15T04:08:36;4.68;;;2.40;;
75129;SDS011;63703;44.716;37.846;2023-04-15T04:11:03;6.45;;;1.58;;
75129;SDS011;63703;44.716;37.846;2023-04-15T04:13:29;3.88;;;1.48;;
75129;SDS011;63703;44.716;37.846;2023-04-15T04:15:55;3.65;;;2.70;;
75129;SDS011;63703;44.716;37.846;2023-04-15T04:18:21;3.55;;;1.63;;
75129;SDS011;63703;44.716;37.846;2023-04-15T04:20:47;8.57;;;2.15;;
75129;SDS011;63703;44.716;37.846;2023-04-15T04:23:13;6.18;;;1.50;;
75129;SDS011;63703;44.716;37.846;2023-04-15T04:25:39;4.10;;;1.50;;
75129;SDS011;63703;44.716;37.846;2023-04-15T04:28:05;3.47;;;1.08;;
75129;SDS011;63703;44.716;37.846;2023-04-15T04:30:31;4.28;;;1.58;;
75129;SDS011;63703;44.716;37.846;2023-04-15T04:32:57;3.85;;;2.00;;
75129;SDS011;63703;44.716;37.846;2023-04-15T04:35:23;2.92;;;1.20;;
75129;SDS011;63703;44.716;37.846;2023-04-15T04:37:49;4.22;;;1.25;;
75129;SDS011;63703;44.716;37.846;2023-04-15T04:40:15;7.63;;;2.83;;
75129;SDS011;63703;44.716;37.846;2023-04-15T04:42:41;4.85;;;1.38;;
75129;SDS011;63703;44.716;37.846;2023-04-15T04:45:07;3.28;;;1.45;;
75129;SDS011;63703;44.716;37.846;2023-04-15T04:47:33;3.70;;;0.95;;
75129;SDS011;63703;44.716;37.846;2023-04-15T04:49:59;5.30;;;1.55;;
75129;SDS011;63703;44.716;37.846;2023-04-15T04:52:25;5.63;;;2.03;;
75129;SDS011;63703;44.716;37.846;2023-04-15T04:54:51;4.75;;;2.28;;
75129;SDS011;63703;44.716;37.846;2023-04-15T04:57:17;6.50;;;1.75;;
75129;SDS011;63703;44.716;37.846;2023-04-15T04:59:43;3.33;;;1.17;;
75129;SDS011;63703;44.716;37.846;2023-04-15T05:02:08;3.88;;;1.23;;
75129;SDS011;63703;44.716;37.846;2023-04-15T05:04:35;6.03;;;1.45;;
75129;SDS011;63703;44.716;37.846;2023-04-15T05:07:01;3.65;;;0.98;;
75129;SDS011;63703;44.716;37.846;2023-04-15T05:09:27;2.67;;;0.77;;
75129;SDS011;63703;44.716;37.846;2023-04-15T05:11:54;3.47;;;0.75;;
75129;SDS011;63703;44.716;37.846;2023-04-15T05:14:20;6.30;;;1.27;;
75129;SDS011;63703;44.716;37.846;2023-04-15T05:16:46;4.38;;;1.45;;
75129;SDS011;63703;44.716;37.846;2023-04-15T05:19:12;3.08;;;1.08;;
75129;SDS011;63703;44.716;37.846;2023-04-15T05:21:38;2.72;;;1.30;;
75129;SDS011;63703;44.716;37.846;2023-04-15T05:24:04;2.25;;;0.88;;
75129;SDS011;63703;44.716;37.846;2023-04-15T05:26:31;4.47;;;1.67;;
75129;SDS011;63703;44.716;37.846;2023-04-15T05:28:57;4.05;;;1.63;;
75129;SDS011;63703;44.716;37.846;2023-04-15T05:31:23;4.22;;;1.30;;
75129;SDS011;63703;44.716;37.846;2023-04-15T05:33:49;4.03;;;1.48;;
75129;SDS011;63703;44.716;37.846;2023-04-15T05:36:14;3.47;;;1.30;;
75129;SDS011;63703;44.716;37.846;2023-04-15T05:38:41;3.45;;;0.90;;
75129;SDS011;63703;44.716;37.846;2023-04-15T05:41:07;4.78;;;1.42;;
75129;SDS011;63703;44.716;37.846;2023-04-15T05:43:33;4.00;;;1.80;;
75129;SDS011;63703;44.716;37.846;2023-04-15T05:45:59;3.97;;;0.95;;
75129;SDS011;63703;44.716;37.846;2023-04-15T05:48:25;2.38;;;1.17;;
75129;SDS011;63703;44.716;37.846;2023-04-15T05:50:51;8.35;;;0.82;;
75129;SDS011;63703;44.716;37.846;2023-04-15T05:53:17;4.50;;;1.55;;
75129;SDS011;63703;44.716;37.846;2023-04-15T05:55:43;2.67;;;0.93;;
75129;SDS011;63703;44.716;37.846;2023-04-15T05:58:09;4.35;;;1.23;;
75129;SDS011;63703;44.716;37.846;2023-04-15T06:00:35;2.55;;;0.50;;
75129;SDS011;63703;44.716;37.846;2023-04-15T06:03:01;3.75;;;1.80;;
75129;SDS011;63703;44.716;37.846;2023-04-15T06:05:28;4.50;;;0.90;;
75129;SDS011;63703;44.716;37.846;2023-04-15T06:07:54;5.47;;;2.10;;
75129;SDS011;63703;44.716;37.846;2023-04-15T06:10:20;3.58;;;1.27;;
75129;SDS011;63703;44.716;37.846;2023-04-15T06:12:46;5.00;;;2.78;;
75129;SDS011;63703;44.716;37.846;2023-04-15T06:15:12;3.17;;;1.63;;
75129;SDS011;63703;44.716;37.846;2023-04-15T06:17:38;3.80;;;0.93;;
75129;SDS011;63703;44.716;37.846;2023-04-15T06:20:04;2.97;;;1.20;;
75129;SDS011;63703;44.716;37.846;2023-04-15T06:22:30;3.20;;;0.63;;
75129;SDS011;63703;44.716;37.846;2023-04-15T06:24:56;3.60;;;1.33;;
75129;SDS011;63703;44.716;37.846;2023-04-15T06:27:22;6.22;;;1.15;;
75129;SDS011;63703;44.716;37.846;2023-04-15T06:29:49;3.03;;;0.85;;
75129;SDS011;63703;44.716;37.846;2023-04-15T06:32:15;4.22;;;1.30;;
75129;SDS011;63703;44.716;37.846;2023-04-15T06:34:41;5.45;;;1.10;;
75129;SDS011;63703;44.716;37.846;2023-04-15T06:37:07;3.33;;;1.13;;
75129;SDS011;63703;44.716;37.846;2023-04-15T06:39:35;5.38;;;1.40;;
75129;SDS011;63703;44.716;37.846;2023-04-15T06:42:01;2.85;;;1.58;;
75129;SDS011;63703;44.716;37.846;2023-04-15T06:44:28;2.25;;;0.73;;
75129;SDS011;63703;44.716;37.846;2023-04-15T06:46:54;4.25;;;1.60;;
75129;SDS011;63703;44.716;37.846;2023-04-15T06:49:19;2.90;;;0.60;;
75129;SDS011;63703;44.716;37.846;2023-04-15T06:51:46;3.72;;;1.58;;
75129;SDS011;63703;44.716;37.846;2023-04-15T06:54:11;3.60;;;0.95;;
75129;SDS011;63703;44.716;37.846;2023-04-15T06:56:37;3.17;;;1.35;;
75129;SDS011;63703;44.716;37.846;2023-04-15T06:59:03;2.75;;;0.93;;
75129;SDS011;63703;44.716;37.846;2023-04-15T07:01:30;4.75;;;0.98;;
75129;SDS011;63703;44.716;37.846;2023-04-15T07:03:56;3.45;;;1.45;;
75129;SDS011;63703;44.716;37.846;2023-04-15T07:06:22;4.00;;;1.13;;
75129;SDS011;63703;44.716;37.846;2023-04-15T07:08:48;5.25;;;0.75;;
75129;SDS011;63703;44.716;37.846;2023-04-15T07:11:14;6.47;;;1.13;;
75129;SDS011;63703;44.716;37.846;2023-04-15T07:13:41;2.58;;;1.75;;
75129;SDS011;63703;44.716;37.846;2023-04-15T07:16:07;3.50;;;2.17;;
75129;SDS011;63703;44.716;37.846;2023-04-15T07:18:33;4.95;;;1.23;;
75129;SDS011;63703;44.716;37.846;2023-04-15T07:20:59;3.00;;;0.85;;
75129;SDS011;63703;44.716;37.846;2023-04-15T07:23:25;5.53;;;0.90;;
75129;SDS011;63703;44.716;37.846;2023-04-15T07:25:50;2.97;;;1.30;;
75129;SDS011;63703;44.716;37.846;2023-04-15T07:28:17;2.97;;;0.77;;
75129;SDS011;63703;44.716;37.846;2023-04-15T07:30:43;2.85;;;1.02;;
75129;SDS011;63703;44.716;37.846;2023-04-15T07:33:09;2.58;;;0.85;;
75129;SDS011;63703;44.716;37.846;2023-04-15T07:35:35;3.85;;;1.13;;
75129;SDS011;63703;44.716;37.846;2023-04-15T07:38:02;3.53;;;0.65;;
75129;SDS011;63703;44.716;37.846;2023-04-15T07:40:28;4.05;;;0.75;;
75129;SDS011;63703;44.716;37.846;2023-04-15T07:42:56;3.03;;;0.80;;
75129;SDS011;63703;44.716;37.846;2023-04-15T07:45:23;3.58;;;1.63;;
75129;SDS011;63703;44.716;37.846;2023-04-15T07:47:49;3.13;;;1.05;;
75129;SDS011;63703;44.716;37.846;2023-04-15T07:50:17;2.60;;;0.82;;
75129;SDS011;63703;44.716;37.846;2023-04-15T07:52:44;3.53;;;0.98;;
75129;SDS011;63703;44.716;37.846;2023-04-15T07:55:10;2.72;;;0.85;;
75129;SDS011;63703;44.716;37.846;2023-04-15T07:57:36;3.10;;;0.77;;
75129;SDS011;63703;44.716;37.846;2023-04-15T08:00:03;6.13;;;0.70;;
75129;SDS011;63703;44.716;37.846;2023-04-15T08:02:38;2.72;;;1.00;;
75129;SDS011;63703;44.716;37.846;2023-04-15T08:05:04;2.88;;;0.90;;
75129;SDS011;63703;44.716;37.846;2023-04-15T08:07:31;4.00;;;0.88;;
75129;SDS011;63703;44.716;37.846;2023-04-15T08:09:57;2.60;;;0.98;;
75129;SDS011;63703;44.716;37.846;2023-04-15T08:12:23;14.40;;;1.25;;
75129;SDS011;63703;44.716;37.846;2023-04-15T08:14:50;4.50;;;1.35;;
75129;SDS011;63703;44.716;37.846;2023-04-15T08:17:16;5.78;;;0.82;;
75129;SDS011;63703;44.716;37.846;2023-04-15T08:19:42;3.28;;;1.00;;
75129;SDS011;63703;44.716;37.846;2023-04-15T08:22:08;3.22;;;1.05;;
75129;SDS011;63703;44.716;37.846;2023-04-15T08:24:36;6.30;;;0.55;;
75129;SDS011;63703;44.716;37.846;2023-04-15T08:27:02;2.83;;;1.80;;
75129;SDS011;63703;44.716;37.846;2023-04-15T08:29:30;4.88;;;0.88;;
75129;SDS011;63703;44.716;37.846;2023-04-15T08:31:58;3.40;;;1.02;;
75129;SDS011;63703;44.716;37.846;2023-04-15T08:34:25;5.55;;;0.88;;
75129;SDS011;63703;44.716;37.846;2023-04-15T08:36:52;7.45;;;0.70;;
75129;SDS011;63703;44.716;37.846;2023-04-15T08:39:18;4.30;;;0.90;;
75129;SDS011;63703;44.716;37.846;2023-04-15T08:41:50;2.90;;;1.13;;
75129;SDS011;63703;44.716;37.846;2023-04-15T08:44:18;3.47;;;0.45;;
75129;SDS011;63703;44.716;37.846;2023-04-15T08:46:45;3.15;;;1.20;;
75129;SDS011;63703;44.716;37.846;2023-04-15T08:49:13;2.60;;;0.65;;
75129;SDS011;63703;44.716;37.846;2023-04-15T08:51:40;4.65;;;1.33;;
75129;SDS011;63703;44.716;37.846;2023-04-15T08:54:09;7.88;;;1.05;;
75129;SDS011;63703;44.716;37.846;2023-04-15T08:56:35;3.67;;;1.48;;
75129;SDS011;63703;44.716;37.846;2023-04-15T08:59:03;2.97;;;0.95;;
75129;SDS011;63703;44.716;37.846;2023-04-15T09:01:30;3.40;;;0.70;;
75129;SDS011;63703;44.716;37.846;2023-04-15T09:03:56;2.63;;;0.95;;
75129;SDS011;63703;44.716;37.846;2023-04-15T09:06:25;4.15;;;0.52;;
75129;SDS011;63703;44.716;37.846;2023-04-15T09:08:51;6.22;;;1.00;;
75129;SDS011;63703;44.716;37.846;2023-04-15T09:11:17;2.00;;;0.60;;
75129;SDS011;63703;44.716;37.846;2023-04-15T09:13:44;2.40;;;0.90;;
75129;SDS011;63703;44.716;37.846;2023-04-15T09:16:10;3.40;;;1.13;;
75129;SDS011;63703;44.716;37.846;2023-04-15T09:18:37;4.53;;;1.10;;
75129;SDS011;63703;44.716;37.846;2023-04-15T09:21:07;2.22;;;0.73;;
75129;SDS011;63703;44.716;37.846;2023-04-15T09:23:39;4.20;;;0.60;;
75129;SDS011;63703;44.716;37.846;2023-04-15T09:26:06;3.22;;;0.60;;
75129;SDS011;63703;44.716;37.846;2023-04-15T09:28:33;3.53;;;0.43;;
75129;SDS011;63703;44.716;37.846;2023-04-15T09:31:06;5.93;;;1.13;;
75129;SDS011;63703;44.716;37.846;2023-04-15T09:33:32;2.63;;;1.65;;
75129;SDS011;63703;44.716;37.846;2023-04-15T09:35:59;4.55;;;0.95;;
75129;SDS011;63703;44.716;37.846;2023-04-15T09:38:30;3.65;;;0.40;;
75129;SDS011;63703;44.716;37.846;2023-04-15T09:40:56;3.28;;;1.10;;
75129;SDS011;63703;44.716;37.846;2023-04-15T09:43:36;4.07;;;0.65;;
75129;SDS011;63703;44.716;37.846;2023-04-15T09:46:03;2.40;;;0.35;;
75129;SDS011;63703;44.716;37.846;2023-04-15T09:48:30;3.03;;;0.80;;
75129;SDS011;63703;44.716;37.846;2023-04-15T09:50:59;4.03;;;0.73;;
75129;SDS011;63703;44.716;37.846;2023-04-15T09:55:53;4.18;;;0.60;;
75129;SDS011;63703;44.716;37.846;2023-04-15T09:58:28;2.80;;;0.90;;
75129;SDS011;63703;44.716;37.846;2023-04-15T10:00:55;2.80;;;1.10;;
75129;SDS011;63703;44.716;37.846;2023-04-15T10:03:24;3.60;;;1.65;;
75129;SDS011;63703;44.716;37.846;2023-04-15T10:05:52;2.40;;;0.93;;
75129;SDS011;63703;44.716;37.846;2023-04-15T10:08:21;3.70;;;1.40;;
75129;SDS011;63703;44.716;37.846;2023-04-15T10:10:49;2.60;;;0.90;;
75129;SDS011;63703;44.716;37.846;2023-04-15T10:13:17;2.95;;;0.80;;
75129;SDS011;63703;44.716;37.846;2023-04-15T10:15:47;4.25;;;0.88;;
75129;SDS011;63703;44.716;37.846;2023-04-15T10:18:37;2.92;;;1.23;;
75129;SDS011;63703;44.716;37.846;2023-04-15T10:21:07;3.97;;;1.63;;
75129;SDS011;63703;44.716;37.846;2023-04-15T10:23:33;4.28;;;0.75;;
75129;SDS011;63703;44.716;37.846;2023-04-15T10:26:00;4.70;;;1.30;;
75129;SDS011;63703;44.716;37.846;2023-04-15T10:28:31;4.43;;;1.35;;
75129;SDS011;63703;44.716;37.846;2023-04-15T10:30:57;2.92;;;1.25;;
75129;SDS011;63703;44.716;37.846;2023-04-15T10:33:24;24.42;;;2.08;;
75129;SDS011;63703;44.716;37.846;2023-04-15T10:35:52;5.15;;;0.80;;
75129;SDS011;63703;44.716;37.846;2023-04-15T10:38:32;4.07;;;0.85;;
75129;SDS011;63703;44.716;37.846;2023-04-15T10:41:17;4.03;;;1.75;;
75129;SDS011;63703;44.716;37.846;2023-04-15T10:46:35;3.38;;;1.20;;
75129;SDS011;63703;44.716;37.846;2023-04-15T10:49:08;2.53;;;0.95;;
75129;SDS011;63703;44.716;37.846;2023-04-15T10:51:42;4.05;;;1.00;;
75129;SDS011;63703;44.716;37.846;2023-04-15T10:54:14;3.70;;;1.20;;
75129;SDS011;63703;44.716;37.846;2023-04-15T10:59:31;3.75;;;1.05;;
75129;SDS011;63703;44.716;37.846;2023-04-15T11:02:02;2.83;;;1.20;;
75129;SDS011;63703;44.716;37.846;2023-04-15T11:13:02;3.83;;;1.25;;
75129;SDS011;63703;44.716;37.846;2023-04-15T11:18:12;5.13;;;1.23;;
75129;SDS011;63703;44.716;37.846;2023-04-15T11:20:53;4.88;;;1.10;;
75129;SDS011;63703;44.716;37.846;2023-04-15T11:23:37;2.80;;;1.30;;
75129;SDS011;63703;44.716;37.846;2023-04-15T11:26:06;2.85;;;1.00;;
75129;SDS011;63703;44.716;37.846;2023-04-15T11:28:36;3.15;;;0.73;;
75129;SDS011;63703;44.716;37.846;2023-04-15T11:31:06;3.90;;;1.10;;
75129;SDS011;63703;44.716;37.846;2023-04-15T11:33:35;3.03;;;1.30;;
75129;SDS011;63703;44.716;37.846;2023-04-15T11:36:02;3.90;;;1.33;;
75129;SDS011;63703;44.716;37.846;2023-04-15T11:38:28;2.65;;;1.27;;
75129;SDS011;63703;44.716;37.846;2023-04-15T11:40:55;3.22;;;1.10;;
75129;SDS011;63703;44.716;37.846;2023-04-15T11:43:22;2.38;;;1.25;;
75129;SDS011;63703;44.716;37.846;2023-04-15T11:45:52;2.60;;;1.10;;
75129;SDS011;63703;44.716;37.846;2023-04-15T11:48:23;3.80;;;1.92;;
75129;SDS011;63703;44.716;37.846;2023-04-15T11:51:00;3.58;;;0.88;;
75129;SDS011;63703;44.716;37.846;2023-04-15T11:53:43;3.10;;;0.85;;
75129;SDS011;63703;44.716;37.846;2023-04-15T11:56:16;3.03;;;1.92;;
75129;SDS011;63703;44.716;37.846;2023-04-15T11:58:43;5.65;;;1.30;;
75129;SDS011;63703;44.716;37.846;2023-04-15T12:01:11;3.30;;;1.15;;
75129;SDS011;63703;44.716;37.846;2023-04-15T12:03:38;4.30;;;0.90;;
75129;SDS011;63703;44.716;37.846;2023-04-15T12:09:20;2.88;;;1.23;;
75129;SDS011;63703;44.716;37.846;2023-04-15T12:11:33;2.90;;;0.83;;
75129;SDS011;63703;44.716;37.846;2023-04-15T12:14:28;3.30;;;1.07;;
75129;SDS011;63703;44.716;37.846;2023-04-15T12:17:00;3.00;;;1.33;;
75129;SDS011;63703;44.716;37.846;2023-04-15T12:19:37;2.35;;;0.90;;
75129;SDS011;63703;44.716;37.846;2023-04-15T12:22:05;3.67;;;1.10;;
75129;SDS011;63703;44.716;37.846;2023-04-15T12:24:34;2.55;;;0.63;;
75129;SDS011;63703;44.716;37.846;2023-04-15T12:27:02;3.53;;;1.35;;
75129;SDS011;63703;44.716;37.846;2023-04-15T12:29:32;3.75;;;0.90;;
75129;SDS011;63703;44.716;37.846;2023-04-15T12:34:39;2.85;;;1.05;;
75129;SDS011;63703;44.716;37.846;2023-04-15T12:37:14;4.63;;;1.40;;
75129;SDS011;63703;44.716;37.846;2023-04-15T12:39:41;5.45;;;1.38;;
75129;SDS011;63703;44.716;37.846;2023-04-15T12:42:08;4.03;;;0.95;;
75129;SDS011;63703;44.716;37.846;2023-04-15T12:44:36;4.25;;;1.20;;
75129;SDS011;63703;44.716;37.846;2023-04-15T12:47:03;3.85;;;0.88;;
75129;SDS011;63703;44.716;37.846;2023-04-15T12:49:29;4.70;;;1.13;;
75129;SDS011;63703;44.716;37.846;2023-04-15T12:51:57;3.15;;;0.80;;
75129;SDS011;63703;44.716;37.846;2023-04-15T12:54:25;3.20;;;1.57;;
75129;SDS011;63703;44.716;37.846;2023-04-15T12:56:52;4.53;;;1.08;;
75129;SDS011;63703;44.716;37.846;2023-04-15T12:59:18;4.60;;;1.08;;
75129;SDS011;63703;44.716;37.846;2023-04-15T13:01:45;3.80;;;0.85;;
75129;SDS011;63703;44.716;37.846;2023-04-15T13:04:12;2.40;;;0.77;;
75129;SDS011;63703;44.716;37.846;2023-04-15T13:06:39;4.38;;;0.70;;
75129;SDS011;63703;44.716;37.846;2023-04-15T13:09:05;3.20;;;0.52;;
75129;SDS011;63703;44.716;37.846;2023-04-15T13:11:31;2.35;;;0.88;;
75129;SDS011;63703;44.716;37.846;2023-04-15T13:14:05;1.73;;;0.32;;
75129;SDS011;63703;44.716;37.846;2023-04-15T13:16:33;3.92;;;0.70;;
75129;SDS011;63703;44.716;37.846;2023-04-15T13:18:59;4.68;;;0.38;;
75129;SDS011;63703;44.716;37.846;2023-04-15T13:21:26;1.88;;;0.50;;
75129;SDS011;63703;44.716;37.846;2023-04-15T13:23:52;3.80;;;1.05;;
75129;SDS011;63703;44.716;37.846;2023-04-15T13:26:19;2.63;;;0.93;;
75129;SDS011;63703;44.716;37.846;2023-04-15T13:28:44;3.08;;;1.52;;
75129;SDS011;63703;44.716;37.846;2023-04-15T13:31:11;4.40;;;1.05;;
75129;SDS011;63703;44.716;37.846;2023-04-15T13:33:37;2.90;;;0.47;;
75129;SDS011;63703;44.716;37.846;2023-04-15T13:36:03;2.20;;;0.77;;
75129;SDS011;63703;44.716;37.846;2023-04-15T13:38:29;6.75;;;0.88;;
75129;SDS011;63703;44.716;37.846;2023-04-15T13:40:55;4.18;;;0.75;;
75129;SDS011;63703;44.716;37.846;2023-04-15T13:43:21;2.72;;;0.43;;
75129;SDS011;63703;44.716;37.846;2023-04-15T13:45:47;2.97;;;0.70;;
75129;SDS011;63703;44.716;37.846;2023-04-15T13:48:14;3.88;;;0.90;;
75129;SDS011;63703;44.716;37.846;2023-04-15T13:50:40;2.33;;;0.77;;
75129;SDS011;63703;44.716;37.846;2023-04-15T13:53:10;2.55;;;0.57;;
75129;SDS011;63703;44.716;37.846;2023-04-15T13:55:36;2.05;;;0.60;;
75129;SDS011;63703;44.716;37.846;2023-04-15T13:58:06;2.50;;;0.73;;
75129;SDS011;63703;44.716;37.846;2023-04-15T14:00:35;4.72;;;0.43;;
75129;SDS011;63703;44.716;37.846;2023-04-15T14:05:27;4.15;;;0.75;;
75129;SDS011;63703;44.716;37.846;2023-04-15T14:07:53;2.55;;;0.25;;
75129;SDS011;63703;44.716;37.846;2023-04-15T14:10:19;4.15;;;0.15;;
75129;SDS011;63703;44.716;37.846;2023-04-15T14:12:45;3.05;;;0.93;;
75129;SDS011;63703;44.716;37.846;2023-04-15T14:15:11;3.28;;;1.05;;
75129;SDS011;63703;44.716;37.846;2023-04-15T14:17:37;3.50;;;1.13;;
75129;SDS011;63703;44.716;37.846;2023-04-15T14:20:05;5.05;;;0.73;;
75129;SDS011;63703;44.716;37.846;2023-04-15T14:22:32;4.95;;;0.63;;
75129;SDS011;63703;44.716;37.846;2023-04-15T14:27:24;2.83;;;0.80;;
75129;SDS011;63703;44.716;37.846;2023-04-15T14:29:51;3.17;;;1.13;;
75129;SDS011;63703;44.716;37.846;2023-04-15T14:32:18;4.57;;;1.50;;
75129;SDS011;63703;44.716;37.846;2023-04-15T14:34:44;3.00;;;0.70;;
75129;SDS011;63703;44.716;37.846;2023-04-15T14:37:10;2.00;;;0.80;;
75129;SDS011;63703;44.716;37.846;2023-04-15T14:39:36;3.13;;;1.08;;
75129;SDS011;63703;44.716;37.846;2023-04-15T14:42:02;4.53;;;1.02;;
75129;SDS011;63703;44.716;37.846;2023-04-15T14:44:28;3.42;;;1.15;;
75129;SDS011;63703;44.716;37.846;2023-04-15T14:46:54;3.03;;;0.63;;
75129;SDS011;63703;44.716;37.846;2023-04-15T14:49:20;3.50;;;1.20;;
75129;SDS011;63703;44.716;37.846;2023-04-15T14:51:47;4.30;;;1.05;;
75129;SDS011;63703;44.716;37.846;2023-04-15T14:54:13;2.85;;;0.85;;
75129;SDS011;63703;44.716;37.846;2023-04-15T14:56:39;3.75;;;1.33;;
75129;SDS011;63703;44.716;37.846;2023-04-15T14:59:05;4.30;;;0.93;;
75129;SDS011;63703;44.716;37.846;2023-04-15T15:01:32;5.25;;;1.35;;
75129;SDS011;63703;44.716;37.846;2023-04-15T15:03:58;4.25;;;0.93;;